createdAt,value
2023-02-09T00:02:20.030Z,102642.92
2023-02-09T00:04:50.073Z,102635.08
2023-02-09T00:07:17.059Z,102636.36
2023-02-09T00:09:45.626Z,102635.70
2023-02-09T00:12:34.643Z,102635.08
2023-02-09T00:15:01.830Z,102640.09
2023-02-09T00:17:28.929Z,102642.29
2023-02-09T00:19:57.655Z,102640.50
2023-02-09T00:22:27.315Z,102645.16
2023-02-09T00:24:57.049Z,102644.94
2023-02-09T00:27:24.407Z,102640.62
2023-02-09T00:29:53.989Z,102639.59
2023-02-09T00:32:20.916Z,102643.10
2023-02-09T00:34:47.994Z,102645.10
2023-02-09T00:37:18.268Z,102649.02
2023-02-09T00:39:46.189Z,102651.58
2023-02-09T00:42:14.007Z,102646.73
2023-02-09T00:44:42.797Z,102644.88
2023-02-09T00:47:10.725Z,102639.06
2023-02-09T00:49:40.232Z,102635.05
2023-02-09T00:52:09.832Z,102630.70
2023-02-09T00:54:37.170Z,102621.89
2023-02-09T00:57:05.627Z,102616.07
2023-02-09T00:59:35.431Z,102612.36
2023-02-09T01:02:03.039Z,102614.92
2023-02-09T01:04:30.276Z,102608.48
2023-02-09T01:06:57.262Z,102600.45
2023-02-09T01:09:27.946Z,102594.63
2023-02-09T01:11:55.080Z,102599.08
2023-02-09T01:14:25.551Z,102594.86
2023-02-09T01:16:52.769Z,102596.35
2023-02-09T01:19:19.939Z,102591.75
2023-02-09T01:21:50.261Z,102587.63
2023-02-09T01:24:17.602Z,102589.48
2023-02-09T01:26:45.025Z,102583.77
2023-02-09T01:29:23.483Z,102584.26
2023-02-09T01:31:50.738Z,102574.02
2023-02-09T01:34:21.032Z,102566.52
2023-02-09T01:36:49.478Z,102562.66
2023-02-09T01:39:17.299Z,102562.23
2023-02-09T01:41:45.101Z,102559.27
2023-02-09T01:44:42.684Z,102558.27
2023-02-09T01:47:16.229Z,102555.02
2023-02-09T01:49:45.215Z,102549.61
2023-02-09T01:52:18.803Z,102546.60
2023-02-09T01:54:50.906Z,102542.04
2023-02-09T01:57:21.404Z,102533.19
2023-02-09T01:59:55.314Z,102532.89
2023-02-09T02:02:23.634Z,102530.01
2023-02-09T02:04:51.508Z,102518.54
2023-02-09T02:07:26.410Z,102513.70
2023-02-09T02:09:54.537Z,102505.16
2023-02-09T02:12:21.972Z,102504.62
2023-02-09T02:14:48.995Z,102499.36
2023-02-09T02:17:29.199Z,102498.45
2023-02-09T02:20:29.175Z,102496.29
2023-02-09T02:23:06.436Z,102488.90
2023-02-09T02:26:08.753Z,102486.16
2023-02-09T02:29:07.636Z,102477.05
2023-02-09T02:32:11.423Z,102476.05
2023-02-09T02:34:47.111Z,102467.93
2023-02-09T02:37:25.520Z,102465.17
2023-02-09T02:40:00.218Z,102463.14
2023-02-09T02:42:54.955Z,102461.41
2023-02-09T02:45:30.215Z,102459.02
2023-02-09T02:48:08.222Z,102457.81
2023-02-09T02:50:46.247Z,102460.52
2023-02-09T02:53:19.092Z,102458.56
2023-02-09T02:56:01.139Z,102452.72
2023-02-09T02:58:30.395Z,102442.66
2023-02-09T03:01:01.450Z,102439.02
2023-02-09T03:03:33.764Z,102440.66
2023-02-09T03:06:04.136Z,102433.80
2023-02-09T03:08:31.386Z,102427.00
2023-02-09T03:10:58.518Z,102423.80
2023-02-09T03:13:54.095Z,102419.75
2023-02-09T03:16:28.713Z,102416.86
2023-02-09T03:19:11.167Z,102411.69
2023-02-09T03:21:47.138Z,102409.06
2023-02-09T03:24:25.885Z,102404.02
2023-02-09T03:26:56.810Z,102400.94
2023-02-09T03:29:29.383Z,102398.19
2023-02-09T03:31:57.412Z,102403.56
2023-02-09T03:34:24.667Z,102405.46
2023-02-09T03:36:56.303Z,102405.70
2023-02-09T03:39:23.363Z,102408.23
2023-02-09T03:41:50.320Z,102408.27
2023-02-09T03:44:29.776Z,102408.70
2023-02-09T03:46:58.458Z,102409.50
2023-02-09T03:49:30.428Z,102415.00
2023-02-09T03:52:01.934Z,102414.14
2023-02-09T03:54:40.774Z,102413.52
2023-02-09T03:57:08.431Z,102413.36
2023-02-09T03:59:37.813Z,102409.66
2023-02-09T04:02:10.351Z,102410.05
2023-02-09T04:04:57.621Z,102409.13
2023-02-09T04:07:39.103Z,102409.49
2023-02-09T04:10:26.267Z,102411.15
2023-02-09T04:12:53.147Z,102407.39
2023-02-09T04:15:22.368Z,102405.77
2023-02-09T04:17:52.575Z,102409.02
2023-02-09T04:20:19.894Z,102415.29
2023-02-09T04:22:49.760Z,102410.54
2023-02-09T04:25:17.126Z,102407.14
2023-02-09T04:27:47.256Z,102405.33
2023-02-09T04:30:19.322Z,102404.05
2023-02-09T04:32:46.292Z,102399.81
2023-02-09T04:35:13.447Z,102401.08
2023-02-09T04:37:40.438Z,102408.98
2023-02-09T04:40:08.975Z,102398.47
2023-02-09T04:42:36.061Z,102395.85
2023-02-09T04:45:03.319Z,102395.39
2023-02-09T04:47:30.231Z,102387.92
2023-02-09T04:49:57.212Z,102388.39
2023-02-09T04:52:24.383Z,102386.62
2023-02-09T04:54:51.471Z,102386.77
2023-02-09T04:57:38.558Z,102387.23
2023-02-09T05:00:06.233Z,102392.66
2023-02-09T05:02:35.708Z,102389.70
2023-02-09T05:05:03.393Z,102396.79
2023-02-09T05:07:30.542Z,102390.30
2023-02-09T05:09:57.599Z,102386.00
2023-02-09T05:12:24.695Z,102378.79
2023-02-09T05:14:51.751Z,102377.48
2023-02-09T05:17:21.163Z,102377.43
2023-02-09T05:19:51.914Z,102378.49
2023-02-09T05:22:19.214Z,102377.92
2023-02-09T05:24:46.223Z,102383.27
2023-02-09T05:27:13.576Z,102381.77
2023-02-09T05:29:40.748Z,102382.60
2023-02-09T05:32:08.149Z,102385.63
2023-02-09T05:34:35.463Z,102387.78
2023-02-09T05:37:02.832Z,102380.30
2023-02-09T05:39:32.918Z,102377.19
2023-02-09T05:42:18.028Z,102377.55
2023-02-09T05:44:45.794Z,102375.45
2023-02-09T05:47:18.139Z,102375.25
2023-02-09T05:49:54.776Z,102376.38
2023-02-09T05:52:22.745Z,102373.14
2023-02-09T05:54:51.339Z,102368.33
2023-02-09T05:57:19.058Z,102366.20
2023-02-09T05:59:46.158Z,102368.13
2023-02-09T06:02:13.597Z,102366.65
2023-02-09T06:04:40.844Z,102363.14
2023-02-09T06:07:09.931Z,102366.11
2023-02-09T06:09:37.995Z,102362.14
2023-02-09T06:12:05.220Z,102355.44
2023-02-09T06:14:32.315Z,102357.36
2023-02-09T06:16:59.390Z,102358.33
2023-02-09T06:19:26.549Z,102354.33
2023-02-09T06:21:54.300Z,102355.06
2023-02-09T06:24:21.455Z,102354.73
2023-02-09T06:26:48.497Z,102349.88
2023-02-09T06:29:15.749Z,102356.56
2023-02-09T06:31:42.954Z,102359.21
2023-02-09T06:34:10.902Z,102358.20
2023-02-09T06:36:38.026Z,102361.03
2023-02-09T06:39:07.769Z,102357.80
2023-02-09T06:41:34.710Z,102358.70
2023-02-09T06:44:02.270Z,102362.05
2023-02-09T06:46:33.682Z,102360.64
2023-02-09T06:49:00.728Z,102359.06
2023-02-09T06:51:28.199Z,102355.34
2023-02-09T06:53:55.352Z,102353.92
2023-02-09T06:56:24.949Z,102353.20
2023-02-09T06:58:52.563Z,102354.77
2023-02-09T07:01:22.659Z,102354.18
2023-02-09T07:03:49.597Z,102356.75
2023-02-09T07:06:21.355Z,102354.02
2023-02-09T07:08:49.817Z,102349.80
2023-02-09T07:11:18.921Z,102342.13
2023-02-09T07:13:47.003Z,102340.77
2023-02-09T07:16:14.371Z,102340.10
2023-02-09T07:18:41.521Z,102335.42
2023-02-09T07:21:12.628Z,102338.85
2023-02-09T07:23:40.228Z,102337.28
2023-02-09T07:26:09.161Z,102332.90
2023-02-09T07:28:47.918Z,102329.52
2023-02-09T07:31:35.803Z,102334.15
2023-02-09T07:34:05.924Z,102333.95
2023-02-09T07:36:53.041Z,102328.21
2023-02-09T07:39:39.209Z,102325.46
2023-02-09T07:42:09.395Z,102328.23
2023-02-09T07:44:51.529Z,102331.63
2023-02-09T07:47:21.285Z,102330.54
2023-02-09T07:49:48.379Z,102325.60
2023-02-09T07:52:15.711Z,102327.55
2023-02-09T07:54:42.912Z,102325.47
2023-02-09T07:57:10.094Z,102322.20
2023-02-09T07:59:37.747Z,102321.32
2023-02-09T08:02:05.767Z,102323.13
2023-02-09T08:04:36.301Z,102322.50
2023-02-09T08:07:05.818Z,102322.50
2023-02-09T08:09:35.542Z,102322.39
2023-02-09T08:12:06.457Z,102326.55
2023-02-09T08:14:39.974Z,102319.80
2023-02-09T08:17:24.343Z,102315.16
2023-02-09T08:19:54.048Z,102308.10
2023-02-09T08:22:22.784Z,102301.48
2023-02-09T08:24:50.471Z,102305.42
2023-02-09T08:27:17.617Z,102302.63
2023-02-09T08:29:44.662Z,102296.48
2023-02-09T08:32:11.749Z,102287.53
2023-02-09T08:34:38.811Z,102280.73
2023-02-09T08:37:14.261Z,102278.31
2023-02-09T08:39:41.134Z,102269.48
2023-02-09T08:42:08.304Z,102269.38
2023-02-09T08:44:35.687Z,102270.97
2023-02-09T08:47:02.962Z,102273.69
2023-02-09T08:49:30.366Z,102269.88
2023-02-09T08:51:57.633Z,102269.77
2023-02-09T08:54:25.511Z,102267.95
2023-02-09T08:56:52.613Z,102269.39
2023-02-09T08:59:20.213Z,102267.51
2023-02-09T09:01:47.272Z,102265.47
2023-02-09T09:04:14.303Z,102259.48
2023-02-09T09:06:44.169Z,102256.81
2023-02-09T09:09:11.856Z,102250.97
2023-02-09T09:11:39.221Z,102246.98
2023-02-09T09:14:06.439Z,102248.55
2023-02-09T09:16:33.393Z,102244.20
2023-02-09T09:19:00.351Z,102245.30
2023-02-09T09:21:27.608Z,102245.25
2023-02-09T09:23:54.788Z,102246.72
2023-02-09T09:26:21.906Z,102241.35
2023-02-09T09:28:52.105Z,102235.80
2023-02-09T09:31:20.186Z,102241.07
2023-02-09T09:33:47.861Z,102245.22
2023-02-09T09:36:15.964Z,102247.35
2023-02-09T09:38:45.818Z,102242.60
2023-02-09T09:41:23.856Z,102243.81
2023-02-09T09:43:52.034Z,102242.13
2023-02-09T09:46:22.124Z,102231.32
2023-02-09T09:48:52.819Z,102237.79
2023-02-09T09:51:25.888Z,102228.56
2023-02-09T09:53:56.012Z,102236.51
2023-02-09T09:56:25.020Z,102234.95
2023-02-09T09:58:54.464Z,102228.39
2023-02-09T10:01:23.694Z,102221.48
2023-02-09T10:03:50.673Z,102219.23
2023-02-09T10:06:20.829Z,102218.11
2023-02-09T10:08:53.961Z,102213.25
2023-02-09T10:11:28.901Z,102210.23
2023-02-09T10:13:57.509Z,102208.30
2023-02-09T10:16:27.393Z,102196.84
2023-02-09T10:18:56.129Z,102199.64
2023-02-09T10:21:25.177Z,102185.89
2023-02-09T10:24:04.805Z,102182.88
2023-02-09T10:26:33.793Z,102185.70
2023-02-09T10:29:08.451Z,102179.73
2023-02-09T10:31:40.024Z,102171.64
2023-02-09T10:34:14.825Z,102166.03
2023-02-09T10:36:51.569Z,102157.79
2023-02-09T10:39:23.615Z,102160.86
2023-02-09T10:41:53.281Z,102156.05
2023-02-09T10:44:25.179Z,102148.67
2023-02-09T10:47:09.777Z,102144.21
2023-02-09T10:49:40.050Z,102135.46
2023-02-09T10:52:18.436Z,102127.63
2023-02-09T10:54:48.964Z,102127.14
2023-02-09T10:57:26.238Z,102117.36
2023-02-09T10:59:58.987Z,102112.54
2023-02-09T11:02:43.197Z,102110.48
2023-02-09T11:05:29.257Z,102103.20
2023-02-09T11:08:00.165Z,102094.50
2023-02-09T11:10:30.716Z,102093.39
2023-02-09T11:12:58.417Z,102085.59
2023-02-09T11:15:31.257Z,102083.76
2023-02-09T11:18:06.921Z,102085.27
2023-02-09T11:20:41.488Z,102076.08
2023-02-09T11:23:37.112Z,102076.66
2023-02-09T11:26:10.367Z,102064.49
2023-02-09T11:28:48.897Z,102061.30
2023-02-09T11:31:31.989Z,102062.80
2023-02-09T11:34:07.106Z,102057.84
2023-02-09T11:36:47.132Z,102055.34
2023-02-09T11:39:20.378Z,102055.41
2023-02-09T11:42:13.785Z,102051.14
2023-02-09T11:44:47.778Z,102051.19
2023-02-09T11:47:20.682Z,102040.35
2023-02-09T11:49:50.334Z,102035.06
2023-02-09T11:52:22.191Z,102038.36
2023-02-09T11:54:55.269Z,102035.77
2023-02-09T11:57:32.722Z,102030.89
2023-02-09T12:00:02.644Z,102028.58
2023-02-09T12:02:46.422Z,102022.94
2023-02-09T12:05:20.348Z,102025.69
2023-02-09T12:08:07.296Z,102022.29
2023-02-09T12:10:42.608Z,102019.05
2023-02-09T12:13:23.378Z,102020.86
2023-02-09T12:16:05.885Z,102013.66
2023-02-09T12:18:36.544Z,102011.27
2023-02-09T12:21:06.407Z,102007.02
2023-02-09T12:23:46.766Z,102007.83
2023-02-09T12:26:41.334Z,101999.80
2023-02-09T12:29:34.000Z,102004.66
2023-02-09T12:32:42.983Z,102000.70
2023-02-09T12:35:28.510Z,101994.36
2023-02-09T12:38:10.288Z,101989.40
2023-02-09T12:40:39.878Z,101980.09
2023-02-09T12:43:13.333Z,101981.29
2023-02-09T12:45:41.885Z,101975.84
2023-02-09T12:48:19.427Z,101972.19
2023-02-09T12:50:54.229Z,101971.25
2023-02-09T12:53:50.814Z,101964.11
2023-02-09T12:56:32.832Z,101960.99
2023-02-09T12:59:14.710Z,101959.88
2023-02-09T13:02:13.186Z,101957.06
2023-02-09T13:04:45.130Z,101957.91
2023-02-09T13:07:23.847Z,101957.60
2023-02-09T13:09:53.289Z,101955.20
2023-02-09T13:12:25.138Z,101953.24
2023-02-09T13:14:53.740Z,101948.45
2023-02-09T13:17:39.492Z,101942.58
2023-02-09T13:20:29.329Z,101939.67
2023-02-09T13:23:14.776Z,101941.13
2023-02-09T13:25:44.263Z,101930.96
2023-02-09T13:28:18.241Z,101926.36
2023-02-09T13:30:46.234Z,101919.61
2023-02-09T13:33:30.795Z,101918.07
2023-02-09T13:36:19.621Z,101915.73
2023-02-09T13:38:54.540Z,101909.85
2023-02-09T13:41:33.222Z,101916.24
2023-02-09T13:44:03.011Z,101903.16
2023-02-09T13:46:35.321Z,101906.11
2023-02-09T13:49:16.890Z,101900.48
2023-02-09T13:51:44.229Z,101901.29
2023-02-09T13:54:21.363Z,101906.73
2023-02-09T13:56:48.815Z,101906.48
2023-02-09T13:59:17.843Z,101910.34
2023-02-09T14:01:46.480Z,101904.27
2023-02-09T14:04:17.375Z,101907.65
2023-02-09T14:06:48.635Z,101905.29
2023-02-09T14:09:25.117Z,101902.82
2023-02-09T14:11:57.999Z,101895.75
2023-02-09T14:14:51.811Z,101887.99
2023-02-09T14:17:27.349Z,101885.10
2023-02-09T14:19:55.552Z,101880.55
2023-02-09T14:22:37.144Z,101882.10
2023-02-09T14:25:29.618Z,101878.00
2023-02-09T14:27:58.353Z,101874.05
2023-02-09T14:30:27.952Z,101862.29
2023-02-09T14:33:00.365Z,101855.80
2023-02-09T14:35:42.145Z,101855.82
2023-02-09T14:38:36.310Z,101853.45
2023-02-09T14:41:34.635Z,101854.74
2023-02-09T14:44:22.694Z,101854.54
2023-02-09T14:47:01.929Z,101846.70
2023-02-09T14:49:30.043Z,101847.23
2023-02-09T14:52:05.472Z,101849.48
2023-02-09T14:54:52.969Z,101842.81
2023-02-09T14:57:21.387Z,101845.59
2023-02-09T14:59:59.023Z,101847.29
2023-02-09T15:02:28.332Z,101848.97
2023-02-09T15:04:56.527Z,101845.66
2023-02-09T15:07:30.058Z,101843.61
2023-02-09T15:09:57.164Z,101844.52
2023-02-09T15:12:27.537Z,101846.42
2023-02-09T15:14:58.844Z,101848.50
2023-02-09T15:17:30.312Z,101848.63
2023-02-09T15:19:58.415Z,101851.48
2023-02-09T15:22:26.175Z,101849.88
2023-02-09T15:24:54.667Z,101846.49
2023-02-09T15:27:33.891Z,101845.05
2023-02-09T15:30:04.384Z,101844.59
2023-02-09T15:32:32.230Z,101841.24
2023-02-09T15:34:59.348Z,101836.83
2023-02-09T15:37:29.547Z,101841.23
2023-02-09T15:40:00.039Z,101840.09
2023-02-09T15:42:47.241Z,101831.83
2023-02-09T15:45:43.823Z,101830.55
2023-02-09T15:48:11.663Z,101827.90
2023-02-09T15:50:45.571Z,101827.25
2023-02-09T15:53:18.798Z,101826.36
2023-02-09T15:55:58.743Z,101818.27
2023-02-09T15:58:35.220Z,101817.27
2023-02-09T16:01:23.642Z,101810.08
2023-02-09T16:04:13.395Z,101810.92
2023-02-09T16:06:47.599Z,101811.58
2023-02-09T16:09:20.298Z,101813.16
2023-02-09T16:11:48.568Z,101816.25
2023-02-09T16:14:20.525Z,101817.98
2023-02-09T16:16:48.326Z,101812.02
2023-02-09T16:19:16.942Z,101812.22
2023-02-09T16:21:47.329Z,101812.98
2023-02-09T16:24:23.108Z,101814.21
2023-02-09T16:26:50.369Z,101813.91
2023-02-09T16:29:19.961Z,101814.87
2023-02-09T16:31:46.944Z,101810.33
2023-02-09T16:34:15.670Z,101811.95
2023-02-09T16:36:44.181Z,101806.71
2023-02-09T16:39:19.710Z,101801.14
2023-02-09T16:41:50.816Z,101793.50
2023-02-09T16:44:21.338Z,101796.28
2023-02-09T16:46:49.784Z,101793.27
2023-02-09T16:49:28.237Z,101791.77
2023-02-09T16:51:56.651Z,101794.75
2023-02-09T16:54:24.330Z,101796.33
2023-02-09T16:56:54.493Z,101797.61
2023-02-09T16:59:21.972Z,101795.81
2023-02-09T17:01:49.492Z,101796.27
2023-02-09T17:04:16.700Z,101799.11
2023-02-09T17:06:45.123Z,101797.66
2023-02-09T17:09:17.793Z,101793.81
2023-02-09T17:11:45.233Z,101791.45
2023-02-09T17:14:12.802Z,101789.64
2023-02-09T17:16:43.492Z,101783.73
2023-02-09T17:19:18.194Z,101781.55
2023-02-09T17:21:45.663Z,101780.73
2023-02-09T17:24:17.898Z,101775.49
2023-02-09T17:26:45.632Z,101774.98
2023-02-09T17:29:13.411Z,101772.80
2023-02-09T17:31:52.942Z,101773.36
2023-02-09T17:34:27.198Z,101764.84
2023-02-09T17:36:54.465Z,101762.45
2023-02-09T17:39:21.568Z,101764.19
2023-02-09T17:41:50.081Z,101762.70
2023-02-09T17:44:29.018Z,101762.92
2023-02-09T17:47:03.494Z,101759.74
2023-02-09T17:49:30.471Z,101753.17
2023-02-09T17:51:57.496Z,101753.39
2023-02-09T17:54:24.563Z,101749.69
2023-02-09T17:56:51.655Z,101745.65
2023-02-09T17:59:20.353Z,101741.13
2023-02-09T18:01:50.507Z,101733.13
2023-02-09T18:04:26.861Z,101738.64
2023-02-09T18:06:56.040Z,101731.85
2023-02-09T18:09:44.890Z,101725.27
2023-02-09T18:12:19.743Z,101722.10
2023-02-09T18:14:47.000Z,101717.38
2023-02-09T18:17:17.331Z,101709.95
2023-02-09T18:19:44.353Z,101711.25
2023-02-09T18:22:17.015Z,101705.88
2023-02-09T18:25:00.235Z,101705.29
2023-02-09T18:27:27.498Z,101699.64
2023-02-09T18:29:55.381Z,101695.79
2023-02-09T18:32:25.812Z,101699.45
2023-02-09T18:34:52.792Z,101695.33
2023-02-09T18:37:19.919Z,101691.30
2023-02-09T18:39:47.807Z,101694.99
2023-02-09T18:42:35.493Z,101701.80
2023-02-09T18:45:03.029Z,101696.45
2023-02-09T18:47:50.583Z,101695.73
2023-02-09T18:50:28.953Z,101688.00
2023-02-09T18:52:58.044Z,101691.24
2023-02-09T18:55:29.459Z,101687.11
2023-02-09T18:57:57.084Z,101682.98
2023-02-09T19:00:24.967Z,101685.02
2023-02-09T19:03:02.953Z,101671.68
2023-02-09T19:05:32.231Z,101668.40
2023-02-09T19:08:01.933Z,101666.17
2023-02-09T19:10:30.702Z,101672.45
2023-02-09T19:12:57.965Z,101668.48
2023-02-09T19:15:26.051Z,101676.18
2023-02-09T19:17:55.181Z,101664.36
2023-02-09T19:20:27.122Z,101658.35
2023-02-09T19:22:55.597Z,101656.10
2023-02-09T19:25:28.148Z,101655.18
2023-02-09T19:27:56.100Z,101653.42
2023-02-09T19:30:30.700Z,101657.21
2023-02-09T19:33:01.285Z,101655.86
2023-02-09T19:35:39.575Z,101653.31
2023-02-09T19:38:06.609Z,101648.34
2023-02-09T19:40:41.024Z,101644.73
2023-02-09T19:43:12.481Z,101644.71
2023-02-09T19:45:39.532Z,101648.66
2023-02-09T19:48:08.190Z,101645.26
2023-02-09T19:50:36.700Z,101648.73
2023-02-09T19:53:03.911Z,101646.19
2023-02-09T19:55:52.517Z,101640.89
2023-02-09T19:58:21.427Z,101638.00
2023-02-09T20:00:58.688Z,101639.52
2023-02-09T20:03:26.003Z,101638.64
2023-02-09T20:06:15.205Z,101632.52
2023-02-09T20:08:43.150Z,101626.51
2023-02-09T20:11:12.840Z,101623.08
2023-02-09T20:13:40.617Z,101622.98
2023-02-09T20:16:12.534Z,101627.80
2023-02-09T20:18:43.615Z,101623.52
2023-02-09T20:21:12.958Z,101623.88
2023-02-09T20:23:40.131Z,101619.35
2023-02-09T20:26:14.288Z,101617.15
2023-02-09T20:28:43.791Z,101616.84
2023-02-09T20:31:11.567Z,101611.70
2023-02-09T20:33:40.461Z,101617.05
2023-02-09T20:36:10.228Z,101609.80
2023-02-09T20:38:38.770Z,101607.39
2023-02-09T20:41:10.968Z,101603.23
2023-02-09T20:44:06.307Z,101604.33
2023-02-09T20:46:54.245Z,101611.94
2023-02-09T20:49:21.781Z,101610.35
2023-02-09T20:51:48.896Z,101607.72
2023-02-09T20:54:17.903Z,101608.00
2023-02-09T20:56:45.033Z,101612.70
2023-02-09T20:59:12.737Z,101620.68
2023-02-09T21:01:41.677Z,101625.44
2023-02-09T21:04:09.696Z,101624.73
2023-02-09T21:06:38.151Z,101630.20
2023-02-09T21:09:05.712Z,101627.63
2023-02-09T21:11:32.810Z,101626.61
2023-02-09T21:14:01.334Z,101626.42
2023-02-09T21:16:32.175Z,101618.20
2023-02-09T21:18:59.629Z,101608.91
2023-02-09T21:21:27.641Z,101612.21
2023-02-09T21:23:54.846Z,101609.58
2023-02-09T21:26:24.615Z,101601.13
2023-02-09T21:28:52.574Z,101596.56
2023-02-09T21:31:23.162Z,101593.34
2023-02-09T21:33:52.641Z,101589.91
2023-02-09T21:36:22.277Z,101585.48
2023-02-09T21:38:49.875Z,101580.77
2023-02-09T21:41:38.123Z,101576.45
2023-02-09T21:44:05.939Z,101575.41
2023-02-09T21:46:33.382Z,101577.98
2023-02-09T21:49:00.418Z,101576.09
2023-02-09T21:51:28.035Z,101575.79
2023-02-09T21:53:55.875Z,101571.21
2023-02-09T21:56:23.316Z,101569.66
2023-02-09T21:58:50.734Z,101577.13
2023-02-09T22:01:18.277Z,101578.80
2023-02-09T22:03:48.793Z,101580.00
2023-02-09T22:06:16.586Z,101580.38
2023-02-09T22:08:43.500Z,101581.73
2023-02-09T22:11:13.976Z,101587.72
2023-02-09T22:13:41.091Z,101589.55
2023-02-09T22:16:11.075Z,101588.49
2023-02-09T22:18:38.527Z,101584.16
2023-02-09T22:21:09.005Z,101582.45
2023-02-09T22:23:36.156Z,101579.16
2023-02-09T22:26:05.706Z,101581.46
2023-02-09T22:28:43.521Z,101584.61
2023-02-09T22:31:12.798Z,101581.66
2023-02-09T22:33:40.272Z,101580.13
2023-02-09T22:36:27.636Z,101577.85
2023-02-09T22:39:14.747Z,101578.31
2023-02-09T22:41:51.011Z,101568.13
2023-02-09T22:44:20.360Z,101558.69
2023-02-09T22:46:50.831Z,101571.52
2023-02-09T22:49:20.430Z,101563.98
2023-02-09T22:51:49.385Z,101560.73
2023-02-09T22:54:18.711Z,101563.83
2023-02-09T22:56:46.387Z,101561.94
2023-02-09T22:59:15.400Z,101566.01
2023-02-09T23:01:42.954Z,101566.91
2023-02-09T23:04:14.221Z,101561.66
2023-02-09T23:06:50.644Z,101557.23
2023-02-09T23:09:17.847Z,101556.36
2023-02-09T23:11:45.347Z,101562.17
2023-02-09T23:14:12.671Z,101555.30
2023-02-09T23:16:49.721Z,101555.77
2023-02-09T23:19:19.187Z,101563.60
2023-02-09T23:21:48.082Z,101556.90
2023-02-09T23:24:16.613Z,101561.08
2023-02-09T23:26:45.629Z,101557.64
2023-02-09T23:29:15.088Z,101544.98
2023-02-09T23:31:42.587Z,101539.98
2023-02-09T23:34:12.929Z,101532.29
2023-02-09T23:36:39.813Z,101531.58
2023-02-09T23:39:08.237Z,101525.42
2023-02-09T23:41:36.556Z,101521.23
2023-02-09T23:44:04.148Z,101529.21
2023-02-09T23:46:31.701Z,101523.86
2023-02-09T23:48:59.308Z,101525.38
2023-02-09T23:51:28.699Z,101526.69
2023-02-09T23:53:57.298Z,101522.92
2023-02-09T23:56:24.878Z,101518.47
2023-02-09T23:58:53.757Z,101516.06
